Vercheres, Canada
Current Conditions -  °F | °C
As of 2:00 PM on Monday 20 Oct 2014 (Local Time) from CYHU Reporting Station
Overcast Overcast  
Wind Chill: 42°   Ceiling: 8200
Heat Index: 45°   Visibility: 9mi
Dew Point: 28°   Wind: 5mph
Humidity: 53%   Direction: 240°WSW
Pressure: 29.93"   Gusts: NA
Location:  45.77°N, 73.35°W
Report Text: CYHU 201800Z AUTO 24004KT 190V280 9SM SCT060 OVC082 07/M02 A2993 RMK TS/LTNG TEMPO UNAVBL SLP138
Loading
Personal Weather Stations






























Interactive Weather Map
Tropical Storm Tracking
New forecast layout! Learn more

10-Day Weather Forecast

Advertisements
Track Severe Weather on mobile